createdAt,value
2017-11-14T00:02:08.680Z,150.63
2017-11-14T00:04:36.264Z,100.03
2017-11-14T00:07:04.268Z,122.53
2017-11-14T00:09:33.079Z,117.90
2017-11-14T00:12:01.314Z,129.27
2017-11-14T00:14:29.596Z,133.60
2017-11-14T00:16:58.195Z,131.17
2017-11-14T00:19:26.103Z,128.13
2017-11-14T00:21:54.491Z,131.83
2017-11-14T00:24:22.017Z,99.23
2017-11-14T00:26:49.540Z,105.73
2017-11-14T00:29:17.189Z,84.35
2017-11-14T00:31:44.717Z,91.55
2017-11-14T00:34:12.685Z,101.35
2017-11-14T00:36:40.310Z,102.23
2017-11-14T00:39:07.825Z,102.50
2017-11-14T00:41:35.829Z,99.70
2017-11-14T00:44:03.504Z,67.10
2017-11-14T00:46:31.021Z,86.37
2017-11-14T00:48:58.537Z,86.28
2017-11-14T00:51:26.105Z,113.03
2017-11-14T00:53:53.608Z,76.17
2017-11-14T00:56:21.111Z,97.07
2017-11-14T00:58:48.692Z,84.80
2017-11-14T01:01:16.249Z,88.97
2017-11-14T01:03:44.508Z,102.37
2017-11-14T01:06:12.472Z,114.27
2017-11-14T01:08:40.187Z,124.12
2017-11-14T01:11:08.589Z,107.30
2017-11-14T01:13:36.105Z,110.13
2017-11-14T01:16:03.623Z,135.90
2017-11-14T01:18:31.185Z,146.43
2017-11-14T01:20:58.709Z,121.20
2017-11-14T01:23:26.236Z,134.33
2017-11-14T01:25:54.756Z,110.73
2017-11-14T01:28:22.600Z,102.00
2017-11-14T01:30:50.116Z,108.10
2017-11-14T01:33:17.683Z,103.23
2017-11-14T01:35:45.195Z,100.25
2017-11-14T01:38:12.708Z,63.90
2017-11-14T01:40:40.252Z,78.95
2017-11-14T01:43:07.761Z,90.07
2017-11-14T01:45:35.280Z,79.27
2017-11-14T01:48:02.849Z,83.30
2017-11-14T01:50:31.873Z,80.30
2017-11-14T01:53:00.148Z,68.57
2017-11-14T01:55:28.767Z,75.53
2017-11-14T01:57:56.272Z,65.40
2017-11-14T02:00:35.640Z,63.13
2017-11-14T02:03:03.151Z,68.00
2017-11-14T02:05:31.168Z,72.13
2017-11-14T02:07:58.708Z,60.90
2017-11-14T02:10:26.591Z,71.57
2017-11-14T02:12:54.101Z,62.63
2017-11-14T02:15:21.681Z,76.93
2017-11-14T02:17:49.188Z,60.20
2017-11-14T02:20:16.800Z,65.57
2017-11-14T02:22:44.356Z,72.87
2017-11-14T02:25:11.864Z,69.27
2017-11-14T02:27:39.437Z,59.77
2017-11-14T02:30:06.985Z,59.13
2017-11-14T02:32:34.507Z,64.27
2017-11-14T02:35:02.018Z,59.43
2017-11-14T02:37:29.562Z,74.43
2017-11-14T02:39:57.129Z,53.00
2017-11-14T02:42:24.640Z,57.07
2017-11-14T02:44:52.654Z,58.80
2017-11-14T02:47:20.161Z,58.23
2017-11-14T02:49:47.920Z,70.50
2017-11-14T02:52:15.483Z,62.50
2017-11-14T02:54:42.996Z,69.73
2017-11-14T02:57:10.761Z,57.17
2017-11-14T02:59:38.318Z,68.03
2017-11-14T03:02:05.838Z,69.13
2017-11-14T03:04:33.359Z,58.50
2017-11-14T03:07:00.689Z,83.77
2017-11-14T03:09:28.209Z,80.37
2017-11-14T03:11:55.729Z,98.70
2017-11-14T03:14:23.660Z,101.90
2017-11-14T03:16:51.933Z,109.93
2017-11-14T03:19:19.440Z,93.13
2017-11-14T03:21:47.801Z,110.27
2017-11-14T03:24:15.321Z,109.60
2017-11-14T03:26:42.833Z,76.57
2017-11-14T03:29:10.409Z,79.97
2017-11-14T03:31:37.930Z,78.67
2017-11-14T03:34:05.463Z,69.68
2017-11-14T03:36:33.172Z,50.67
2017-11-14T03:39:00.684Z,40.33
2017-11-14T03:41:28.296Z,40.63
2017-11-14T03:43:55.870Z,36.57
2017-11-14T03:46:23.698Z,29.90
2017-11-14T03:48:51.224Z,32.28
2017-11-14T03:51:19.341Z,35.23
2017-11-14T03:53:46.852Z,35.83
2017-11-14T03:56:15.129Z,35.70
2017-11-14T03:58:43.513Z,32.60
2017-11-14T04:01:11.209Z,34.22
2017-11-14T04:03:38.715Z,36.37
2017-11-14T04:06:06.272Z,33.83
2017-11-14T04:08:33.787Z,38.10
2017-11-14T04:11:01.384Z,47.00
2017-11-14T04:13:28.960Z,39.83
2017-11-14T04:15:57.241Z,37.47
2017-11-14T04:18:25.516Z,46.23
2017-11-14T04:20:53.323Z,44.93
2017-11-14T04:23:21.120Z,42.70
2017-11-14T04:25:48.635Z,40.33
2017-11-14T04:28:16.180Z,41.87
2017-11-14T04:30:44.460Z,28.97
2017-11-14T04:33:12.719Z,46.73
2017-11-14T04:35:42.080Z,42.33
2017-11-14T04:38:09.625Z,39.60
2017-11-14T04:40:37.140Z,48.00
2017-11-14T04:43:05.339Z,46.88
2017-11-14T04:45:32.864Z,44.55
2017-11-14T04:48:00.378Z,43.67
2017-11-14T04:50:28.815Z,40.30
2017-11-14T04:52:56.357Z,44.90
2017-11-14T04:55:23.872Z,44.47
2017-11-14T04:57:51.423Z,45.00
2017-11-14T05:00:18.927Z,47.47
2017-11-14T05:02:46.439Z,37.57
2017-11-14T05:05:14.685Z,47.20
2017-11-14T05:07:43.215Z,43.08
2017-11-14T05:10:11.044Z,47.90
2017-11-14T05:12:38.962Z,49.83
2017-11-14T05:15:06.476Z,43.80
2017-11-14T05:17:33.989Z,42.53
2017-11-14T05:20:01.718Z,37.50
2017-11-14T05:22:29.227Z,37.77
2017-11-14T05:24:56.736Z,37.33
2017-11-14T05:27:24.279Z,37.63
2017-11-14T05:29:51.969Z,33.00
2017-11-14T05:32:19.480Z,35.95
2017-11-14T05:34:47.036Z,36.90
2017-11-14T05:37:14.548Z,27.17
2017-11-14T05:39:42.057Z,31.90
2017-11-14T05:42:09.625Z,33.40
2017-11-14T05:44:38.171Z,32.93
2017-11-14T05:47:05.692Z,33.47
2017-11-14T05:49:33.256Z,48.10
2017-11-14T05:52:00.781Z,36.73
2017-11-14T05:54:28.297Z,36.93
2017-11-14T05:56:55.859Z,38.93
2017-11-14T05:59:23.884Z,39.73
2017-11-14T06:01:51.391Z,46.83
2017-11-14T06:04:18.961Z,43.97
2017-11-14T06:06:46.476Z,36.90
2017-11-14T06:09:13.994Z,47.83
2017-11-14T06:11:41.567Z,34.43
2017-11-14T06:14:09.588Z,42.77
2017-11-14T06:16:37.100Z,46.43
2017-11-14T06:19:04.675Z,51.57
2017-11-14T06:21:32.188Z,46.63
2017-11-14T06:23:59.833Z,42.20
2017-11-14T06:26:29.204Z,41.77
2017-11-14T06:28:56.717Z,44.50
2017-11-14T06:31:24.233Z,41.43
2017-11-14T06:33:51.792Z,47.47
2017-11-14T06:36:19.298Z,41.03
2017-11-14T06:38:47.036Z,39.17
2017-11-14T06:41:15.527Z,56.80
2017-11-14T06:43:43.898Z,41.60
2017-11-14T06:46:11.877Z,46.00
2017-11-14T06:48:39.960Z,40.83
2017-11-14T06:51:07.872Z,35.77
2017-11-14T06:53:35.884Z,47.70
2017-11-14T06:56:04.354Z,37.00
2017-11-14T06:58:31.882Z,33.63
2017-11-14T07:00:59.443Z,37.23
2017-11-14T07:03:26.953Z,32.73
2017-11-14T07:05:54.777Z,34.80
2017-11-14T07:08:22.341Z,36.23
2017-11-14T07:10:49.988Z,35.03
2017-11-14T07:13:17.492Z,40.73
2017-11-14T07:15:45.747Z,27.63
2017-11-14T07:18:13.261Z,27.80
2017-11-14T07:20:40.775Z,31.13
2017-11-14T07:23:08.332Z,29.90
2017-11-14T07:25:35.836Z,32.80
2017-11-14T07:28:03.753Z,34.73
2017-11-14T07:30:31.340Z,29.10
2017-11-14T07:32:58.856Z,28.47
2017-11-14T07:35:26.363Z,30.67
2017-11-14T07:37:53.933Z,25.93
2017-11-14T07:40:21.444Z,28.77
2017-11-14T07:42:48.954Z,24.80
2017-11-14T07:45:16.849Z,25.87
2017-11-14T07:47:44.658Z,26.30
2017-11-14T07:50:12.168Z,27.50
2017-11-14T07:52:40.040Z,28.90
2017-11-14T07:55:07.572Z,24.40
2017-11-14T07:57:35.092Z,24.97
2017-11-14T08:00:02.672Z,26.13
2017-11-14T08:02:30.176Z,22.87
2017-11-14T08:04:57.689Z,26.13
2017-11-14T08:07:25.639Z,26.80
2017-11-14T08:09:53.145Z,33.37
2017-11-14T08:12:20.656Z,30.37
2017-11-14T08:14:48.241Z,28.73
2017-11-14T08:17:15.752Z,22.10
2017-11-14T08:19:43.267Z,23.80
2017-11-14T08:22:11.156Z,34.83
2017-11-14T08:24:38.669Z,27.93
2017-11-14T08:27:06.186Z,29.37
2017-11-14T08:29:34.228Z,27.67
2017-11-14T08:32:02.632Z,30.50
2017-11-14T08:34:30.140Z,25.03
2017-11-14T08:36:57.692Z,22.73
2017-11-14T08:39:25.217Z,20.47
2017-11-14T08:41:52.728Z,20.90
2017-11-14T08:44:20.306Z,19.63
2017-11-14T08:46:47.811Z,23.93
2017-11-14T08:49:15.325Z,18.87
2017-11-14T08:51:43.672Z,23.10
2017-11-14T08:54:11.176Z,24.47
2017-11-14T08:56:39.552Z,28.57
2017-11-14T08:59:07.244Z,22.13
2017-11-14T09:01:34.756Z,21.07
2017-11-14T09:04:02.265Z,25.27
2017-11-14T09:06:29.815Z,18.30
2017-11-14T09:08:57.315Z,17.97
2017-11-14T09:11:24.820Z,21.00
2017-11-14T09:13:52.404Z,24.13
2017-11-14T09:16:19.904Z,18.77
2017-11-14T09:18:48.192Z,18.50
2017-11-14T09:21:15.885Z,16.30
2017-11-14T09:23:43.396Z,20.83
2017-11-14T09:26:10.900Z,18.43
2017-11-14T09:28:38.440Z,18.17
2017-11-14T09:31:05.954Z,19.83
2017-11-14T09:33:34.004Z,17.63
2017-11-14T09:36:01.545Z,18.37
2017-11-14T09:38:29.060Z,24.33
2017-11-14T09:40:56.576Z,16.40
2017-11-14T09:43:24.138Z,27.00
2017-11-14T09:45:51.664Z,19.97
2017-11-14T09:48:19.535Z,23.13
2017-11-14T09:50:47.473Z,20.40
2017-11-14T09:53:16.107Z,24.63
2017-11-14T09:55:43.609Z,18.30
2017-11-14T09:58:11.608Z,22.50
2017-11-14T10:00:39.116Z,21.70
2017-11-14T10:03:06.744Z,25.07
2017-11-14T10:05:34.276Z,23.50
2017-11-14T10:08:01.777Z,23.70
2017-11-14T10:10:29.289Z,28.97
2017-11-14T10:12:57.383Z,19.33
2017-11-14T10:15:24.898Z,21.00
2017-11-14T10:17:52.412Z,25.33
2017-11-14T10:20:19.974Z,23.47
2017-11-14T10:22:47.490Z,16.80
2017-11-14T10:25:15.001Z,19.03
2017-11-14T10:27:42.958Z,18.93
2017-11-14T10:30:10.469Z,21.07
2017-11-14T10:32:37.980Z,22.53
2017-11-14T10:35:05.557Z,22.10
2017-11-14T10:37:33.068Z,25.20
2017-11-14T10:40:00.573Z,24.33
2017-11-14T10:42:28.522Z,19.83
2017-11-14T10:44:56.029Z,18.03
2017-11-14T10:47:23.533Z,18.73
2017-11-14T10:49:51.091Z,21.37
2017-11-14T10:52:18.597Z,24.50
2017-11-14T10:54:46.099Z,19.93
2017-11-14T10:57:13.676Z,22.63
2017-11-14T10:59:41.187Z,19.43
2017-11-14T11:02:08.693Z,25.50
2017-11-14T11:04:37.273Z,21.43
2017-11-14T11:07:04.780Z,20.57
2017-11-14T11:09:32.293Z,24.97
2017-11-14T11:11:59.877Z,24.87
2017-11-14T11:14:27.384Z,23.60
2017-11-14T11:16:54.888Z,19.67
2017-11-14T11:19:22.832Z,19.80
2017-11-14T11:21:50.346Z,19.70
2017-11-14T11:24:17.857Z,16.90
2017-11-14T11:26:45.744Z,17.53
2017-11-14T11:29:13.481Z,20.03
2017-11-14T11:31:40.997Z,19.17
2017-11-14T11:34:08.615Z,17.33
2017-11-14T11:36:36.140Z,18.40
2017-11-14T11:39:03.645Z,16.70
2017-11-14T11:41:31.210Z,23.10
2017-11-14T11:43:59.224Z,25.73
2017-11-14T11:46:26.732Z,21.40
2017-11-14T11:48:54.317Z,22.97
2017-11-14T11:51:21.820Z,19.90
2017-11-14T11:53:49.343Z,21.70
2017-11-14T11:56:16.925Z,19.57
2017-11-14T11:58:45.231Z,23.17
2017-11-14T12:01:13.628Z,18.93
2017-11-14T12:03:41.993Z,20.30
2017-11-14T12:06:10.861Z,20.13
2017-11-14T12:08:40.132Z,24.00
2017-11-14T12:11:08.434Z,23.73
2017-11-14T12:13:35.971Z,18.43
2017-11-14T12:16:04.411Z,20.93
2017-11-14T12:18:32.252Z,26.87
2017-11-14T12:20:59.757Z,23.20
2017-11-14T12:23:27.319Z,18.63
2017-11-14T12:25:54.837Z,23.73
2017-11-14T12:28:22.353Z,21.90
2017-11-14T12:30:50.371Z,22.50
2017-11-14T12:33:17.884Z,23.20
2017-11-14T12:35:45.405Z,22.90
2017-11-14T12:38:13.149Z,20.63
2017-11-14T12:40:40.775Z,19.07
2017-11-14T12:43:08.668Z,24.90
2017-11-14T12:45:36.218Z,29.77
2017-11-14T12:48:03.737Z,28.13
2017-11-14T12:50:31.264Z,23.63
2017-11-14T12:52:58.823Z,20.97
2017-11-14T12:55:26.540Z,26.23
2017-11-14T12:57:54.058Z,23.97
2017-11-14T13:00:21.772Z,22.03
2017-11-14T13:02:50.043Z,20.20
2017-11-14T13:05:17.550Z,19.27
2017-11-14T13:07:45.277Z,23.43
2017-11-14T13:10:12.901Z,21.27
2017-11-14T13:12:40.427Z,17.10
2017-11-14T13:15:08.660Z,21.50
2017-11-14T13:17:36.181Z,23.17
2017-11-14T13:20:03.698Z,20.53
2017-11-14T13:22:31.990Z,27.23
2017-11-14T13:24:59.824Z,21.40
2017-11-14T13:27:28.168Z,21.17
2017-11-14T13:29:55.681Z,19.73
2017-11-14T13:32:23.356Z,25.27
2017-11-14T13:34:51.337Z,27.37
2017-11-14T13:37:19.446Z,21.70
2017-11-14T13:39:47.180Z,18.87
2017-11-14T13:42:14.685Z,21.43
2017-11-14T13:44:43.047Z,22.30
2017-11-14T13:47:10.620Z,24.93
2017-11-14T13:49:38.125Z,19.63
2017-11-14T13:52:05.632Z,23.47
2017-11-14T13:54:33.204Z,22.50
2017-11-14T13:57:00.712Z,20.60
2017-11-14T13:59:28.212Z,22.10
2017-11-14T14:01:55.785Z,15.57
2017-11-14T14:04:23.575Z,19.67
2017-11-14T14:06:51.084Z,22.40
2017-11-14T14:09:18.680Z,21.63
2017-11-14T14:11:46.197Z,20.17
2017-11-14T14:14:13.716Z,22.83
2017-11-14T14:16:41.276Z,22.40
2017-11-14T14:19:08.781Z,21.53
2017-11-14T14:21:36.296Z,22.00
2017-11-14T14:24:03.865Z,23.63
2017-11-14T14:26:31.377Z,24.60
2017-11-14T14:28:59.417Z,22.93
2017-11-14T14:31:26.968Z,21.23
2017-11-14T14:33:54.477Z,22.63
2017-11-14T14:36:22.093Z,21.50
2017-11-14T14:38:50.009Z,26.60
2017-11-14T14:41:17.520Z,28.53
2017-11-14T14:43:45.028Z,24.97
2017-11-14T14:46:12.592Z,25.67
2017-11-14T14:48:40.149Z,27.47
2017-11-14T14:51:07.630Z,29.30
2017-11-14T14:53:35.203Z,21.40
2017-11-14T14:56:02.713Z,29.90
2017-11-14T14:58:30.236Z,27.77
2017-11-14T15:00:57.794Z,23.00
2017-11-14T15:03:25.304Z,27.27
2017-11-14T15:05:52.816Z,21.30
2017-11-14T15:08:20.360Z,31.43
2017-11-14T15:10:47.868Z,26.80
2017-11-14T15:13:15.661Z,24.97
2017-11-14T15:15:43.253Z,34.53
2017-11-14T15:18:10.752Z,25.50
2017-11-14T15:20:38.263Z,38.10
2017-11-14T15:23:05.821Z,27.97
2017-11-14T15:25:33.330Z,29.57
2017-11-14T15:28:00.834Z,32.10
2017-11-14T15:30:28.169Z,36.97
2017-11-14T15:32:55.675Z,24.70
2017-11-14T15:35:24.408Z,32.03
2017-11-14T15:37:52.349Z,32.43
2017-11-14T15:40:20.146Z,33.47
2017-11-14T15:42:48.036Z,33.63
2017-11-14T15:45:15.544Z,30.53
2017-11-14T15:47:43.338Z,31.67
2017-11-14T15:50:10.892Z,35.10
2017-11-14T15:52:38.400Z,42.22
2017-11-14T15:55:05.913Z,39.38
2017-11-14T15:57:34.847Z,42.37
2017-11-14T16:00:03.065Z,53.73
2017-11-14T16:02:31.020Z,42.30
2017-11-14T16:05:00.120Z,42.75
2017-11-14T16:07:27.916Z,46.85
2017-11-14T16:09:55.436Z,62.33
2017-11-14T16:12:22.948Z,55.12
2017-11-14T16:14:50.508Z,49.00
2017-11-14T16:17:18.560Z,57.38
2017-11-14T16:19:46.076Z,54.17
2017-11-14T16:22:13.644Z,59.72
2017-11-14T16:24:41.168Z,57.03
2017-11-14T16:27:08.682Z,73.05
2017-11-14T16:29:36.260Z,69.68
2017-11-14T16:32:03.781Z,73.15
2017-11-14T16:34:31.925Z,73.72
2017-11-14T16:36:59.495Z,84.15
2017-11-14T16:39:28.712Z,78.15
2017-11-14T16:41:56.232Z,65.30
2017-11-14T16:44:23.768Z,58.63
2017-11-14T16:46:51.338Z,70.03
2017-11-14T16:49:19.640Z,59.53
2017-11-14T16:51:47.552Z,78.90
2017-11-14T16:54:16.148Z,76.47
2017-11-14T16:56:43.712Z,70.53
2017-11-14T16:59:11.411Z,69.87
2017-11-14T17:01:38.936Z,62.33
2017-11-14T17:04:06.541Z,64.05
2017-11-14T17:06:34.827Z,85.80
2017-11-14T17:09:02.352Z,91.18
2017-11-14T17:11:29.928Z,69.80
2017-11-14T17:13:57.449Z,62.83
2017-11-14T17:16:24.969Z,63.97
2017-11-14T17:18:52.526Z,75.62
2017-11-14T17:21:20.032Z,74.23
2017-11-14T17:23:47.544Z,81.00
2017-11-14T17:26:16.073Z,77.03
2017-11-14T17:28:43.716Z,64.07
2017-11-14T17:31:11.433Z,64.28
2017-11-14T17:33:39.013Z,64.03
2017-11-14T17:36:06.881Z,51.35
2017-11-14T17:38:34.465Z,64.87
2017-11-14T17:41:02.019Z,61.42
2017-11-14T17:43:29.545Z,59.30
2017-11-14T17:45:57.065Z,50.80
2017-11-14T17:48:24.872Z,52.75
2017-11-14T17:50:52.475Z,59.55
2017-11-14T17:53:20.201Z,72.80
2017-11-14T17:55:48.304Z,85.55
2017-11-14T17:58:15.815Z,72.50
2017-11-14T18:00:43.368Z,72.05
2017-11-14T18:03:10.950Z,83.85
2017-11-14T18:05:38.468Z,82.25
2017-11-14T18:08:05.989Z,81.47
2017-11-14T18:10:34.703Z,105.05
2017-11-14T18:13:02.853Z,103.10
2017-11-14T18:15:30.546Z,98.68
2017-11-14T18:17:58.360Z,113.05
2017-11-14T18:20:26.644Z,86.87
2017-11-14T18:22:54.936Z,104.72
2017-11-14T18:25:23.105Z,107.28
2017-11-14T18:27:50.626Z,139.65
2017-11-14T18:30:18.733Z,115.45
2017-11-14T18:32:46.677Z,130.00
2017-11-14T18:35:14.200Z,119.57
2017-11-14T18:37:41.711Z,158.57
2017-11-14T18:40:09.352Z,158.30
2017-11-14T18:42:37.391Z,107.45
2017-11-14T18:45:05.315Z,126.55
2017-11-14T18:47:33.456Z,115.80
2017-11-14T18:50:01.040Z,140.18
2017-11-14T18:52:29.323Z,112.47
2017-11-14T18:54:57.604Z,128.43
2017-11-14T18:57:25.940Z,114.07
2017-11-14T18:59:53.552Z,97.00
2017-11-14T19:02:21.094Z,112.68
2017-11-14T19:04:49.400Z,112.53
2017-11-14T19:07:16.916Z,120.28
2017-11-14T19:09:44.428Z,130.20
2017-11-14T19:12:12.232Z,133.65
2017-11-14T19:14:39.747Z,140.35
2017-11-14T19:17:07.265Z,124.45
2017-11-14T19:19:34.867Z,147.55
2017-11-14T19:22:02.389Z,118.70
2017-11-14T19:24:29.916Z,136.05
2017-11-14T19:26:57.496Z,149.32
2017-11-14T19:29:25.336Z,136.57
2017-11-14T19:31:52.612Z,141.25
2017-11-14T19:34:20.205Z,162.12
2017-11-14T19:36:47.862Z,109.70
2017-11-14T19:39:15.463Z,126.12
2017-11-14T19:41:43.047Z,121.30
2017-11-14T19:44:10.861Z,136.32
2017-11-14T19:46:38.394Z,118.20
2017-11-14T19:49:05.976Z,106.90
2017-11-14T19:51:33.509Z,97.05
2017-11-14T19:54:01.037Z,116.20
2017-11-14T19:56:29.256Z,107.60
2017-11-14T19:58:56.782Z,109.30
2017-11-14T20:01:24.297Z,71.78
2017-11-14T20:03:51.884Z,82.60
2017-11-14T20:06:19.405Z,94.30
2017-11-14T20:08:46.926Z,78.20
2017-11-14T20:11:14.840Z,84.57
2017-11-14T20:13:42.365Z,101.43
2017-11-14T20:16:09.884Z,95.10
2017-11-14T20:18:37.813Z,109.15
2017-11-14T20:21:05.494Z,139.70
2017-11-14T20:23:33.021Z,103.10
2017-11-14T20:26:00.596Z,125.82
2017-11-14T20:28:28.123Z,102.68
2017-11-14T20:30:55.687Z,131.98
2017-11-14T20:33:23.276Z,141.12
2017-11-14T20:35:50.791Z,136.93
2017-11-14T20:38:19.820Z,117.37
2017-11-14T20:40:47.396Z,126.47
2017-11-14T20:43:14.921Z,125.07
2017-11-14T20:45:42.440Z,118.82
2017-11-14T20:48:10.311Z,150.12
2017-11-14T20:50:37.832Z,141.25
2017-11-14T20:53:05.352Z,121.62
2017-11-14T20:55:33.164Z,123.68
2017-11-14T20:58:01.136Z,133.00
2017-11-14T21:00:28.605Z,131.27
2017-11-14T21:02:56.188Z,123.97
2017-11-14T21:05:23.713Z,150.05
2017-11-14T21:07:51.231Z,142.52
2017-11-14T21:10:19.240Z,141.05
2017-11-14T21:12:47.067Z,144.60
2017-11-14T21:15:14.740Z,184.15
2017-11-14T21:17:42.324Z,120.15
2017-11-14T21:20:09.845Z,140.68
2017-11-14T21:22:37.359Z,145.77
2017-11-14T21:25:04.944Z,123.82
2017-11-14T21:27:32.469Z,118.35
2017-11-14T21:29:59.984Z,134.02
2017-11-14T21:32:27.574Z,130.23
2017-11-14T21:34:55.171Z,121.82
2017-11-14T21:37:22.687Z,112.30
2017-11-14T21:39:51.764Z,143.00
2017-11-14T21:42:19.512Z,136.27
2017-11-14T21:44:48.492Z,144.10
2017-11-14T21:47:16.012Z,174.48
2017-11-14T21:49:43.523Z,126.43
2017-11-14T21:52:11.239Z,145.43
2017-11-14T21:54:39.215Z,139.45
2017-11-14T21:57:07.496Z,130.02
2017-11-14T21:59:35.016Z,125.35
2017-11-14T22:02:02.592Z,182.93
2017-11-14T22:04:30.115Z,174.85
2017-11-14T22:06:57.632Z,153.93
2017-11-14T22:09:25.203Z,157.15
2017-11-14T22:11:53.355Z,161.23
2017-11-14T22:14:21.376Z,141.43
2017-11-14T22:16:49.963Z,160.48
2017-11-14T22:19:17.725Z,139.65
2017-11-14T22:21:45.256Z,184.43
2017-11-14T22:24:12.824Z,175.65
2017-11-14T22:26:40.348Z,195.77
2017-11-14T22:29:07.865Z,170.00
2017-11-14T22:31:35.468Z,180.75
2017-11-14T22:34:02.988Z,184.43
2017-11-14T22:36:30.508Z,199.40
2017-11-14T22:38:58.079Z,134.32
2017-11-14T22:41:25.623Z,125.10
2017-11-14T22:43:53.144Z,116.90
2017-11-14T22:46:20.721Z,142.93
2017-11-14T22:48:48.551Z,136.35
2017-11-14T22:51:16.072Z,160.65
2017-11-14T22:53:43.643Z,126.62
2017-11-14T22:56:11.156Z,97.25
2017-11-14T22:58:38.672Z,107.37
2017-11-14T23:01:06.247Z,109.87
2017-11-14T23:03:34.896Z,128.05
2017-11-14T23:06:02.415Z,115.88
2017-11-14T23:08:30.609Z,92.40
2017-11-14T23:10:58.127Z,115.62
2017-11-14T23:13:25.399Z,119.18
2017-11-14T23:15:53.291Z,121.90
2017-11-14T23:18:20.815Z,105.87
2017-11-14T23:20:48.328Z,310.55
2017-11-14T23:23:15.916Z,197.50
2017-11-14T23:25:44.889Z,255.77
2017-11-14T23:28:12.409Z,342.75
2017-11-14T23:30:39.981Z,304.52
2017-11-14T23:33:07.643Z,275.33
2017-11-14T23:35:35.165Z,209.65
2017-11-14T23:38:03.493Z,484.17
2017-11-14T23:40:31.008Z,528.67
2017-11-14T23:42:58.537Z,352.77
2017-11-14T23:45:25.873Z,478.38
2017-11-14T23:47:53.393Z,544.83
2017-11-14T23:50:20.915Z,380.65
2017-11-14T23:52:48.484Z,246.62
2017-11-14T23:55:16.008Z,232.60
2017-11-14T23:57:43.529Z,239.52
